sensor_id;sensor_type;location;lat;lon;timestamp;temperature;humidity
11736;DHT22;5924;51.398;7.088;2023-08-06T00:00:13;14.30;99.90
11736;DHT22;5924;51.398;7.088;2023-08-06T00:02:39;14.30;99.90
11736;DHT22;5924;51.398;7.088;2023-08-06T00:05:05;14.30;99.90
11736;DHT22;5924;51.398;7.088;2023-08-06T00:07:31;14.30;99.90
11736;DHT22;5924;51.398;7.088;2023-08-06T00:09:57;15.80;99.90
11736;DHT22;5924;51.398;7.088;2023-08-06T00:12:23;14.30;99.90
11736;DHT22;5924;51.398;7.088;2023-08-06T00:14:52;14.30;99.90
11736;DHT22;5924;51.398;7.088;2023-08-06T00:17:18;14.40;99.90
11736;DHT22;5924;51.398;7.088;2023-08-06T00:19:44;14.40;99.90
11736;DHT22;5924;51.398;7.088;2023-08-06T00:22:10;14.40;99.90
11736;DHT22;5924;51.398;7.088;2023-08-06T00:24:36;14.40;99.90
11736;DHT22;5924;51.398;7.088;2023-08-06T00:27:02;14.40;99.90
11736;DHT22;5924;51.398;7.088;2023-08-06T00:29:28;14.40;99.90
11736;DHT22;5924;51.398;7.088;2023-08-06T00:31:53;14.40;99.90
11736;DHT22;5924;51.398;7.088;2023-08-06T00:34:19;14.40;99.90
11736;DHT22;5924;51.398;7.088;2023-08-06T00:36:45;14.40;99.90
11736;DHT22;5924;51.398;7.088;2023-08-06T00:39:10;14.40;99.90
11736;DHT22;5924;51.398;7.088;2023-08-06T00:41:36;14.40;99.90
11736;DHT22;5924;51.398;7.088;2023-08-06T00:44:02;14.40;99.90
11736;DHT22;5924;51.398;7.088;2023-08-06T00:46:28;14.40;99.90
11736;DHT22;5924;51.398;7.088;2023-08-06T00:48:54;14.40;99.90
11736;DHT22;5924;51.398;7.088;2023-08-06T00:51:21;14.40;99.90
11736;DHT22;5924;51.398;7.088;2023-08-06T00:53:49;14.30;99.90
11736;DHT22;5924;51.398;7.088;2023-08-06T00:56:15;14.30;99.90
11736;DHT22;5924;51.398;7.088;2023-08-06T00:58:41;13.20;99.90
11736;DHT22;5924;51.398;7.088;2023-08-06T01:01:07;14.30;99.90
11736;DHT22;5924;51.398;7.088;2023-08-06T01:03:33;14.30;99.90
11736;DHT22;5924;51.398;7.088;2023-08-06T01:05:59;14.30;99.90
11736;DHT22;5924;51.398;7.088;2023-08-06T01:16:06;14.30;99.90
11736;DHT22;5924;51.398;7.088;2023-08-06T01:18:32;14.30;99.90
11736;DHT22;5924;51.398;7.088;2023-08-06T01:20:58;14.30;99.90
11736;DHT22;5924;51.398;7.088;2023-08-06T01:23:24;14.30;99.90
11736;DHT22;5924;51.398;7.088;2023-08-06T01:26:05;14.20;99.90
11736;DHT22;5924;51.398;7.088;2023-08-06T01:29:00;14.20;99.90
11736;DHT22;5924;51.398;7.088;2023-08-06T01:31:31;14.20;99.90
11736;DHT22;5924;51.398;7.088;2023-08-06T01:33:59;14.20;99.90
11736;DHT22;5924;51.398;7.088;2023-08-06T01:36:26;14.20;99.90
11736;DHT22;5924;51.398;7.088;2023-08-06T01:38:53;14.20;99.90
11736;DHT22;5924;51.398;7.088;2023-08-06T01:41:19;14.20;99.90
11736;DHT22;5924;51.398;7.088;2023-08-06T01:43:45;14.20;99.90
11736;DHT22;5924;51.398;7.088;2023-08-06T01:46:10;14.20;99.90
11736;DHT22;5924;51.398;7.088;2023-08-06T01:48:36;14.20;99.90
11736;DHT22;5924;51.398;7.088;2023-08-06T01:51:04;14.30;99.90
11736;DHT22;5924;51.398;7.088;2023-08-06T01:53:31;14.30;99.90
11736;DHT22;5924;51.398;7.088;2023-08-06T01:55:57;14.30;99.90
11736;DHT22;5924;51.398;7.088;2023-08-06T01:58:23;14.30;99.90
11736;DHT22;5924;51.398;7.088;2023-08-06T02:00:48;14.30;99.90
11736;DHT22;5924;51.398;7.088;2023-08-06T02:03:14;14.30;99.90
11736;DHT22;5924;51.398;7.088;2023-08-06T02:05:41;14.30;99.90
11736;DHT22;5924;51.398;7.088;2023-08-06T02:08:06;14.40;99.90
11736;DHT22;5924;51.398;7.088;2023-08-06T02:10:32;13.60;99.90
11736;DHT22;5924;51.398;7.088;2023-08-06T02:12:58;14.40;99.90
11736;DHT22;5924;51.398;7.088;2023-08-06T02:15:24;14.40;99.90
11736;DHT22;5924;51.398;7.088;2023-08-06T02:17:49;14.40;99.90
11736;DHT22;5924;51.398;7.088;2023-08-06T02:20:15;14.30;99.90
11736;DHT22;5924;51.398;7.088;2023-08-06T02:22:41;14.30;99.90
11736;DHT22;5924;51.398;7.088;2023-08-06T02:25:07;14.30;99.90
11736;DHT22;5924;51.398;7.088;2023-08-06T02:27:32;14.30;99.90
11736;DHT22;5924;51.398;7.088;2023-08-06T02:29:58;14.30;99.90
11736;DHT22;5924;51.398;7.088;2023-08-06T02:32:24;14.30;99.90
11736;DHT22;5924;51.398;7.088;2023-08-06T02:34:50;14.30;99.90
11736;DHT22;5924;51.398;7.088;2023-08-06T02:37:15;14.30;99.90
11736;DHT22;5924;51.398;7.088;2023-08-06T02:39:41;14.30;99.90
11736;DHT22;5924;51.398;7.088;2023-08-06T02:42:07;14.30;99.90
11736;DHT22;5924;51.398;7.088;2023-08-06T02:44:33;14.30;99.90
11736;DHT22;5924;51.398;7.088;2023-08-06T02:46:59;16.30;99.90
11736;DHT22;5924;51.398;7.088;2023-08-06T02:49:25;14.30;99.90
11736;DHT22;5924;51.398;7.088;2023-08-06T02:51:51;14.20;99.90
11736;DHT22;5924;51.398;7.088;2023-08-06T02:54:18;14.20;99.90
11736;DHT22;5924;51.398;7.088;2023-08-06T02:56:44;14.20;99.90
11736;DHT22;5924;51.398;7.088;2023-08-06T02:59:10;14.10;99.90
11736;DHT22;5924;51.398;7.088;2023-08-06T03:01:36;14.10;99.90
11736;DHT22;5924;51.398;7.088;2023-08-06T03:04:02;14.10;99.90
11736;DHT22;5924;51.398;7.088;2023-08-06T03:06:28;14.10;99.90
11736;DHT22;5924;51.398;7.088;2023-08-06T03:08:53;14.10;99.90
11736;DHT22;5924;51.398;7.088;2023-08-06T03:11:19;14.10;99.90
11736;DHT22;5924;51.398;7.088;2023-08-06T03:13:45;14.10;99.90
11736;DHT22;5924;51.398;7.088;2023-08-06T03:16:10;14.10;99.90
11736;DHT22;5924;51.398;7.088;2023-08-06T03:18:36;14.10;99.90
11736;DHT22;5924;51.398;7.088;2023-08-06T03:21:01;14.10;99.90
11736;DHT22;5924;51.398;7.088;2023-08-06T03:23:27;14.10;99.90
11736;DHT22;5924;51.398;7.088;2023-08-06T03:25:53;14.10;99.90
11736;DHT22;5924;51.398;7.088;2023-08-06T03:28:19;14.10;99.90
11736;DHT22;5924;51.398;7.088;2023-08-06T03:30:44;14.10;99.90
11736;DHT22;5924;51.398;7.088;2023-08-06T03:33:10;14.00;99.90
11736;DHT22;5924;51.398;7.088;2023-08-06T03:35:35;14.00;99.90
11736;DHT22;5924;51.398;7.088;2023-08-06T03:38:01;13.90;99.90
11736;DHT22;5924;51.398;7.088;2023-08-06T03:40:27;15.50;99.90
11736;DHT22;5924;51.398;7.088;2023-08-06T03:42:52;13.90;99.90
11736;DHT22;5924;51.398;7.088;2023-08-06T03:45:18;14.00;99.90
11736;DHT22;5924;51.398;7.088;2023-08-06T03:47:44;13.90;99.90
11736;DHT22;5924;51.398;7.088;2023-08-06T03:50:09;14.00;99.90
11736;DHT22;5924;51.398;7.088;2023-08-06T03:52:35;14.00;99.90
11736;DHT22;5924;51.398;7.088;2023-08-06T03:55:01;14.00;99.90
11736;DHT22;5924;51.398;7.088;2023-08-06T03:57:27;14.00;99.90
11736;DHT22;5924;51.398;7.088;2023-08-06T03:59:52;14.00;99.90
11736;DHT22;5924;51.398;7.088;2023-08-06T04:02:18;14.00;99.90
11736;DHT22;5924;51.398;7.088;2023-08-06T04:04:43;14.00;99.90
11736;DHT22;5924;51.398;7.088;2023-08-06T04:07:09;14.10;99.90
11736;DHT22;5924;51.398;7.088;2023-08-06T04:09:54;14.10;99.90
11736;DHT22;5924;51.398;7.088;2023-08-06T04:12:20;14.10;99.90
11736;DHT22;5924;51.398;7.088;2023-08-06T04:14:45;14.10;99.90
11736;DHT22;5924;51.398;7.088;2023-08-06T04:17:11;14.20;99.90
11736;DHT22;5924;51.398;7.088;2023-08-06T04:19:37;14.10;99.90
11736;DHT22;5924;51.398;7.088;2023-08-06T04:22:03;14.20;99.90
11736;DHT22;5924;51.398;7.088;2023-08-06T04:24:28;14.20;99.90
11736;DHT22;5924;51.398;7.088;2023-08-06T04:26:54;14.20;99.90
11736;DHT22;5924;51.398;7.088;2023-08-06T04:29:19;14.20;99.90
11736;DHT22;5924;51.398;7.088;2023-08-06T04:31:45;14.30;99.90
11736;DHT22;5924;51.398;7.088;2023-08-06T04:34:11;14.30;99.90
11736;DHT22;5924;51.398;7.088;2023-08-06T04:36:37;14.30;99.90
11736;DHT22;5924;51.398;7.088;2023-08-06T04:39:04;14.30;99.90
11736;DHT22;5924;51.398;7.088;2023-08-06T04:41:29;14.40;99.90
11736;DHT22;5924;51.398;7.088;2023-08-06T04:43:56;14.40;99.90
11736;DHT22;5924;51.398;7.088;2023-08-06T04:46:22;14.40;99.90
11736;DHT22;5924;51.398;7.088;2023-08-06T04:48:48;14.40;99.90
11736;DHT22;5924;51.398;7.088;2023-08-06T04:51:13;14.40;99.90
11736;DHT22;5924;51.398;7.088;2023-08-06T04:53:40;14.50;99.90
11736;DHT22;5924;51.398;7.088;2023-08-06T04:56:05;14.50;99.90
11736;DHT22;5924;51.398;7.088;2023-08-06T04:58:31;14.50;99.90
11736;DHT22;5924;51.398;7.088;2023-08-06T05:00:57;14.50;99.90
11736;DHT22;5924;51.398;7.088;2023-08-06T05:03:22;14.50;99.90
11736;DHT22;5924;51.398;7.088;2023-08-06T05:05:48;14.50;99.90
11736;DHT22;5924;51.398;7.088;2023-08-06T05:08:15;14.60;99.90
11736;DHT22;5924;51.398;7.088;2023-08-06T05:10:44;14.60;99.90
11736;DHT22;5924;51.398;7.088;2023-08-06T05:13:10;14.60;99.90
11736;DHT22;5924;51.398;7.088;2023-08-06T05:15:36;14.60;99.90
11736;DHT22;5924;51.398;7.088;2023-08-06T05:18:01;14.60;99.90
11736;DHT22;5924;51.398;7.088;2023-08-06T05:20:27;14.60;99.90
11736;DHT22;5924;51.398;7.088;2023-08-06T05:22:53;14.60;99.90
11736;DHT22;5924;51.398;7.088;2023-08-06T05:25:18;14.60;99.90
11736;DHT22;5924;51.398;7.088;2023-08-06T05:27:44;14.60;99.90
11736;DHT22;5924;51.398;7.088;2023-08-06T05:30:10;14.70;99.90
11736;DHT22;5924;51.398;7.088;2023-08-06T05:32:36;14.80;99.90
11736;DHT22;5924;51.398;7.088;2023-08-06T05:35:01;14.90;99.90
11736;DHT22;5924;51.398;7.088;2023-08-06T05:37:28;14.90;99.90
11736;DHT22;5924;51.398;7.088;2023-08-06T05:39:53;15.00;99.90
11736;DHT22;5924;51.398;7.088;2023-08-06T05:42:19;15.20;99.90
11736;DHT22;5924;51.398;7.088;2023-08-06T05:44:45;15.20;99.90
11736;DHT22;5924;51.398;7.088;2023-08-06T05:47:10;15.30;99.90
11736;DHT22;5924;51.398;7.088;2023-08-06T05:49:36;15.30;99.90
11736;DHT22;5924;51.398;7.088;2023-08-06T05:52:02;15.40;99.90
11736;DHT22;5924;51.398;7.088;2023-08-06T05:54:31;15.50;99.90
11736;DHT22;5924;51.398;7.088;2023-08-06T05:56:57;15.10;99.90
11736;DHT22;5924;51.398;7.088;2023-08-06T05:59:23;15.70;99.90
11736;DHT22;5924;51.398;7.088;2023-08-06T06:01:48;15.60;99.90
11736;DHT22;5924;51.398;7.088;2023-08-06T06:04:14;15.70;99.90
11736;DHT22;5924;51.398;7.088;2023-08-06T06:06:39;15.80;99.90
11736;DHT22;5924;51.398;7.088;2023-08-06T06:09:07;15.90;99.90
11736;DHT22;5924;51.398;7.088;2023-08-06T06:11:32;15.90;99.90
11736;DHT22;5924;51.398;7.088;2023-08-06T06:13:58;17.30;99.90
11736;DHT22;5924;51.398;7.088;2023-08-06T06:16:24;16.10;99.90
11736;DHT22;5924;51.398;7.088;2023-08-06T06:18:49;16.10;99.90
11736;DHT22;5924;51.398;7.088;2023-08-06T06:21:15;16.10;99.90
11736;DHT22;5924;51.398;7.088;2023-08-06T06:23:41;16.20;99.90
11736;DHT22;5924;51.398;7.088;2023-08-06T06:26:06;16.20;99.90
11736;DHT22;5924;51.398;7.088;2023-08-06T06:28:32;16.30;99.90
11736;DHT22;5924;51.398;7.088;2023-08-06T06:31:01;16.40;99.90
11736;DHT22;5924;51.398;7.088;2023-08-06T06:33:27;16.00;99.90
11736;DHT22;5924;51.398;7.088;2023-08-06T06:35:53;16.60;99.90
11736;DHT22;5924;51.398;7.088;2023-08-06T06:38:18;16.70;99.90
11736;DHT22;5924;51.398;7.088;2023-08-06T06:40:52;16.80;99.90
11736;DHT22;5924;51.398;7.088;2023-08-06T06:43:18;16.80;99.90
11736;DHT22;5924;51.398;7.088;2023-08-06T06:45:44;16.70;99.90
11736;DHT22;5924;51.398;7.088;2023-08-06T06:48:09;16.90;99.90
11736;DHT22;5924;51.398;7.088;2023-08-06T06:50:36;16.90;99.90
11736;DHT22;5924;51.398;7.088;2023-08-06T06:53:01;17.00;99.90
11736;DHT22;5924;51.398;7.088;2023-08-06T06:55:27;17.10;99.90
11736;DHT22;5924;51.398;7.088;2023-08-06T06:57:53;17.00;99.90
11736;DHT22;5924;51.398;7.088;2023-08-06T07:00:18;17.10;99.90
11736;DHT22;5924;51.398;7.088;2023-08-06T07:02:44;17.10;99.90
11736;DHT22;5924;51.398;7.088;2023-08-06T07:05:10;17.10;99.90
11736;DHT22;5924;51.398;7.088;2023-08-06T07:07:36;17.10;99.90
11736;DHT22;5924;51.398;7.088;2023-08-06T07:10:03;17.30;99.90
11736;DHT22;5924;51.398;7.088;2023-08-06T07:12:28;17.40;99.90
11736;DHT22;5924;51.398;7.088;2023-08-06T07:14:54;17.40;99.90
11736;DHT22;5924;51.398;7.088;2023-08-06T07:17:20;17.50;99.90
11736;DHT22;5924;51.398;7.088;2023-08-06T07:19:46;17.60;99.90
11736;DHT22;5924;51.398;7.088;2023-08-06T07:22:11;17.60;99.90
11736;DHT22;5924;51.398;7.088;2023-08-06T07:24:37;17.70;99.90
11736;DHT22;5924;51.398;7.088;2023-08-06T07:27:03;17.70;99.90
11736;DHT22;5924;51.398;7.088;2023-08-06T07:29:29;17.80;99.90
11736;DHT22;5924;51.398;7.088;2023-08-06T07:31:54;17.80;99.90
11736;DHT22;5924;51.398;7.088;2023-08-06T07:34:21;17.60;99.90
11736;DHT22;5924;51.398;7.088;2023-08-06T07:36:46;17.60;99.90
11736;DHT22;5924;51.398;7.088;2023-08-06T07:39:12;17.60;99.90
11736;DHT22;5924;51.398;7.088;2023-08-06T07:41:38;17.70;99.90
11736;DHT22;5924;51.398;7.088;2023-08-06T07:44:04;17.80;99.90
11736;DHT22;5924;51.398;7.088;2023-08-06T07:46:29;17.80;99.90
11736;DHT22;5924;51.398;7.088;2023-08-06T07:48:55;17.80;99.90
11736;DHT22;5924;51.398;7.088;2023-08-06T07:51:21;18.00;99.90
11736;DHT22;5924;51.398;7.088;2023-08-06T07:53:46;18.00;99.90
11736;DHT22;5924;51.398;7.088;2023-08-06T07:56:12;18.00;99.90
11736;DHT22;5924;51.398;7.088;2023-08-06T07:58:38;18.00;99.90
11736;DHT22;5924;51.398;7.088;2023-08-06T08:01:03;18.00;99.90
11736;DHT22;5924;51.398;7.088;2023-08-06T08:03:31;18.00;99.90
11736;DHT22;5924;51.398;7.088;2023-08-06T08:05:56;18.00;99.90
11736;DHT22;5924;51.398;7.088;2023-08-06T08:08:25;18.00;99.90
11736;DHT22;5924;51.398;7.088;2023-08-06T08:10:51;18.00;99.90
11736;DHT22;5924;51.398;7.088;2023-08-06T08:13:16;18.00;99.90
11736;DHT22;5924;51.398;7.088;2023-08-06T08:15:42;18.20;99.90
11736;DHT22;5924;51.398;7.088;2023-08-06T08:18:08;18.30;99.90
11736;DHT22;5924;51.398;7.088;2023-08-06T08:20:33;18.40;99.90
11736;DHT22;5924;51.398;7.088;2023-08-06T08:23:01;18.50;99.90
11736;DHT22;5924;51.398;7.088;2023-08-06T08:25:27;18.50;99.90
11736;DHT22;5924;51.398;7.088;2023-08-06T08:27:53;18.50;99.90
11736;DHT22;5924;51.398;7.088;2023-08-06T08:30:19;18.50;99.90
11736;DHT22;5924;51.398;7.088;2023-08-06T08:32:45;18.50;99.90
11736;DHT22;5924;51.398;7.088;2023-08-06T08:35:10;18.60;99.90
11736;DHT22;5924;51.398;7.088;2023-08-06T08:37:41;18.70;99.90
11736;DHT22;5924;51.398;7.088;2023-08-06T08:40:07;18.60;99.90
11736;DHT22;5924;51.398;7.088;2023-08-06T08:42:33;18.70;99.90
11736;DHT22;5924;51.398;7.088;2023-08-06T08:44:59;18.70;99.90
11736;DHT22;5924;51.398;7.088;2023-08-06T08:47:25;18.70;99.90
11736;DHT22;5924;51.398;7.088;2023-08-06T08:49:54;18.80;99.90
11736;DHT22;5924;51.398;7.088;2023-08-06T08:52:21;18.90;99.90
11736;DHT22;5924;51.398;7.088;2023-08-06T08:54:48;19.00;99.90
11736;DHT22;5924;51.398;7.088;2023-08-06T08:57:18;19.00;99.90
11736;DHT22;5924;51.398;7.088;2023-08-06T08:59:44;18.90;99.90
11736;DHT22;5924;51.398;7.088;2023-08-06T09:02:12;18.90;99.90
11736;DHT22;5924;51.398;7.088;2023-08-06T09:04:39;18.90;99.90
11736;DHT22;5924;51.398;7.088;2023-08-06T09:07:05;18.80;99.90
11736;DHT22;5924;51.398;7.088;2023-08-06T09:09:34;18.90;99.90
11736;DHT22;5924;51.398;7.088;2023-08-06T09:12:10;19.00;99.90
11736;DHT22;5924;51.398;7.088;2023-08-06T09:14:36;19.00;99.90
11736;DHT22;5924;51.398;7.088;2023-08-06T09:17:02;19.10;99.90
11736;DHT22;5924;51.398;7.088;2023-08-06T09:19:30;19.10;99.90
11736;DHT22;5924;51.398;7.088;2023-08-06T09:21:56;19.20;99.90
11736;DHT22;5924;51.398;7.088;2023-08-06T09:24:22;19.30;99.90
11736;DHT22;5924;51.398;7.088;2023-08-06T09:26:48;19.30;99.90
11736;DHT22;5924;51.398;7.088;2023-08-06T09:29:13;19.30;99.90
11736;DHT22;5924;51.398;7.088;2023-08-06T09:31:47;19.40;99.90
11736;DHT22;5924;51.398;7.088;2023-08-06T09:34:18;19.60;99.90
11736;DHT22;5924;51.398;7.088;2023-08-06T09:36:48;19.70;99.90
11736;DHT22;5924;51.398;7.088;2023-08-06T09:39:21;19.50;99.90
11736;DHT22;5924;51.398;7.088;2023-08-06T09:41:48;19.50;99.90
11736;DHT22;5924;51.398;7.088;2023-08-06T09:44:18;19.50;99.90
11736;DHT22;5924;51.398;7.088;2023-08-06T09:46:52;19.50;99.90
11736;DHT22;5924;51.398;7.088;2023-08-06T09:49:19;19.40;99.90
11736;DHT22;5924;51.398;7.088;2023-08-06T09:51:46;19.40;99.90
11736;DHT22;5924;51.398;7.088;2023-08-06T09:54:16;19.50;99.90
11736;DHT22;5924;51.398;7.088;2023-08-06T09:56:43;19.70;99.90
11736;DHT22;5924;51.398;7.088;2023-08-06T09:59:09;19.80;99.90
11736;DHT22;5924;51.398;7.088;2023-08-06T10:01:36;19.90;99.90
11736;DHT22;5924;51.398;7.088;2023-08-06T10:04:04;20.00;99.90
11736;DHT22;5924;51.398;7.088;2023-08-06T10:06:34;20.00;99.90
11736;DHT22;5924;51.398;7.088;2023-08-06T10:09:00;20.00;99.90
11736;DHT22;5924;51.398;7.088;2023-08-06T10:11:26;20.00;99.90
11736;DHT22;5924;51.398;7.088;2023-08-06T10:14:12;19.90;99.90
11736;DHT22;5924;51.398;7.088;2023-08-06T10:16:39;19.70;99.90
11736;DHT22;5924;51.398;7.088;2023-08-06T10:19:08;19.40;99.90
11736;DHT22;5924;51.398;7.088;2023-08-06T10:21:35;19.30;99.90
11736;DHT22;5924;51.398;7.088;2023-08-06T10:24:00;19.20;99.90
11736;DHT22;5924;51.398;7.088;2023-08-06T10:26:29;19.20;99.90
11736;DHT22;5924;51.398;7.088;2023-08-06T10:28:55;19.20;99.90
11736;DHT22;5924;51.398;7.088;2023-08-06T10:31:54;19.20;99.90
11736;DHT22;5924;51.398;7.088;2023-08-06T10:34:21;19.20;99.90
11736;DHT22;5924;51.398;7.088;2023-08-06T10:36:46;19.30;99.90
11736;DHT22;5924;51.398;7.088;2023-08-06T10:39:15;19.40;99.90
11736;DHT22;5924;51.398;7.088;2023-08-06T10:41:42;19.40;99.90
11736;DHT22;5924;51.398;7.088;2023-08-06T10:44:10;19.40;99.90
11736;DHT22;5924;51.398;7.088;2023-08-06T10:46:37;19.60;99.90
11736;DHT22;5924;51.398;7.088;2023-08-06T10:49:03;19.90;99.90
11736;DHT22;5924;51.398;7.088;2023-08-06T10:51:30;20.30;99.90
11736;DHT22;5924;51.398;7.088;2023-08-06T10:53:55;20.60;99.90
11736;DHT22;5924;51.398;7.088;2023-08-06T10:56:24;20.70;99.90
11736;DHT22;5924;51.398;7.088;2023-08-06T10:58:56;20.60;99.90
11736;DHT22;5924;51.398;7.088;2023-08-06T11:01:23;20.30;99.90
11736;DHT22;5924;51.398;7.088;2023-08-06T11:03:50;20.00;99.90
11736;DHT22;5924;51.398;7.088;2023-08-06T11:06:22;19.80;99.90
11736;DHT22;5924;51.398;7.088;2023-08-06T11:08:53;19.60;99.90
11736;DHT22;5924;51.398;7.088;2023-08-06T11:11:19;19.50;99.90
11736;DHT22;5924;51.398;7.088;2023-08-06T11:13:47;19.40;99.90
11736;DHT22;5924;51.398;7.088;2023-08-06T11:16:24;19.50;99.90
11736;DHT22;5924;51.398;7.088;2023-08-06T11:18:50;19.50;99.90
11736;DHT22;5924;51.398;7.088;2023-08-06T11:21:22;19.70;99.90
11736;DHT22;5924;51.398;7.088;2023-08-06T11:23:51;19.80;99.90
11736;DHT22;5924;51.398;7.088;2023-08-06T11:26:20;19.90;99.90
11736;DHT22;5924;51.398;7.088;2023-08-06T11:28:46;19.90;99.90
11736;DHT22;5924;51.398;7.088;2023-08-06T11:31:22;19.80;99.90
11736;DHT22;5924;51.398;7.088;2023-08-06T11:33:54;19.60;99.90
11736;DHT22;5924;51.398;7.088;2023-08-06T11:36:34;19.30;99.90
11736;DHT22;5924;51.398;7.088;2023-08-06T11:39:02;19.00;99.90
11736;DHT22;5924;51.398;7.088;2023-08-06T11:41:32;18.70;99.90
11736;DHT22;5924;51.398;7.088;2023-08-06T11:43:58;18.10;99.90
11736;DHT22;5924;51.398;7.088;2023-08-06T11:46:24;17.50;99.90
11736;DHT22;5924;51.398;7.088;2023-08-06T11:48:58;17.10;99.90
11736;DHT22;5924;51.398;7.088;2023-08-06T11:51:27;16.80;99.90
11736;DHT22;5924;51.398;7.088;2023-08-06T11:53:59;16.50;99.90
11736;DHT22;5924;51.398;7.088;2023-08-06T11:56:25;16.20;99.90
11736;DHT22;5924;51.398;7.088;2023-08-06T11:58:52;16.00;99.90
11736;DHT22;5924;51.398;7.088;2023-08-06T12:01:18;15.80;99.90
11736;DHT22;5924;51.398;7.088;2023-08-06T12:03:43;15.60;99.90
11736;DHT22;5924;51.398;7.088;2023-08-06T12:06:09;15.40;99.90
11736;DHT22;5924;51.398;7.088;2023-08-06T12:08:35;15.30;99.90
11736;DHT22;5924;51.398;7.088;2023-08-06T12:11:01;15.20;99.90
11736;DHT22;5924;51.398;7.088;2023-08-06T12:13:27;15.20;99.90
11736;DHT22;5924;51.398;7.088;2023-08-06T12:15:54;15.20;99.90
11736;DHT22;5924;51.398;7.088;2023-08-06T12:18:20;15.20;99.90
11736;DHT22;5924;51.398;7.088;2023-08-06T12:20:46;15.20;99.90
11736;DHT22;5924;51.398;7.088;2023-08-06T12:23:11;15.10;99.90
11736;DHT22;5924;51.398;7.088;2023-08-06T12:25:41;15.00;99.90
11736;DHT22;5924;51.398;7.088;2023-08-06T12:28:07;15.10;99.90
11736;DHT22;5924;51.398;7.088;2023-08-06T12:30:33;15.00;99.90
11736;DHT22;5924;51.398;7.088;2023-08-06T12:32:59;14.90;99.90
11736;DHT22;5924;51.398;7.088;2023-08-06T12:35:25;14.90;99.90
11736;DHT22;5924;51.398;7.088;2023-08-06T12:37:51;14.80;99.90
11736;DHT22;5924;51.398;7.088;2023-08-06T12:40:22;14.80;99.90
11736;DHT22;5924;51.398;7.088;2023-08-06T12:42:50;14.80;99.90
11736;DHT22;5924;51.398;7.088;2023-08-06T12:45:16;14.80;99.90
11736;DHT22;5924;51.398;7.088;2023-08-06T12:47:41;14.80;99.90
11736;DHT22;5924;51.398;7.088;2023-08-06T12:50:07;14.60;99.90
11736;DHT22;5924;51.398;7.088;2023-08-06T12:52:33;14.50;99.90
11736;DHT22;5924;51.398;7.088;2023-08-06T12:54:58;14.50;99.90
11736;DHT22;5924;51.398;7.088;2023-08-06T12:57:24;14.50;99.90
11736;DHT22;5924;51.398;7.088;2023-08-06T12:59:50;14.50;99.90
11736;DHT22;5924;51.398;7.088;2023-08-06T13:02:15;14.50;99.90
11736;DHT22;5924;51.398;7.088;2023-08-06T13:04:41;14.50;99.90
11736;DHT22;5924;51.398;7.088;2023-08-06T13:07:07;14.50;99.90
11736;DHT22;5924;51.398;7.088;2023-08-06T13:09:33;14.60;99.90
11736;DHT22;5924;51.398;7.088;2023-08-06T13:11:59;14.60;99.90
11736;DHT22;5924;51.398;7.088;2023-08-06T13:14:25;14.70;99.90
11736;DHT22;5924;51.398;7.088;2023-08-06T13:16:51;14.70;99.90
11736;DHT22;5924;51.398;7.088;2023-08-06T13:19:16;14.70;99.90
11736;DHT22;5924;51.398;7.088;2023-08-06T13:24:15;14.70;99.90
11736;DHT22;5924;51.398;7.088;2023-08-06T13:26:41;14.60;99.90
11736;DHT22;5924;51.398;7.088;2023-08-06T13:29:06;14.60;99.90
11736;DHT22;5924;51.398;7.088;2023-08-06T13:31:37;14.60;99.90
11736;DHT22;5924;51.398;7.088;2023-08-06T13:34:03;14.60;99.90
11736;DHT22;5924;51.398;7.088;2023-08-06T13:36:28;14.70;99.90
11736;DHT22;5924;51.398;7.088;2023-08-06T13:38:54;14.70;99.90
11736;DHT22;5924;51.398;7.088;2023-08-06T13:41:21;14.70;99.90
11736;DHT22;5924;51.398;7.088;2023-08-06T13:43:46;14.70;99.90
11736;DHT22;5924;51.398;7.088;2023-08-06T13:46:12;14.70;99.90
11736;DHT22;5924;51.398;7.088;2023-08-06T13:48:42;14.70;99.90
11736;DHT22;5924;51.398;7.088;2023-08-06T13:51:08;14.80;99.90
11736;DHT22;5924;51.398;7.088;2023-08-06T13:53:34;14.80;99.90
11736;DHT22;5924;51.398;7.088;2023-08-06T13:56:00;14.80;99.90
11736;DHT22;5924;51.398;7.088;2023-08-06T13:58:25;14.90;99.90
11736;DHT22;5924;51.398;7.088;2023-08-06T14:00:52;15.00;99.90
11736;DHT22;5924;51.398;7.088;2023-08-06T14:03:20;15.10;99.90
11736;DHT22;5924;51.398;7.088;2023-08-06T14:05:45;15.20;99.90
11736;DHT22;5924;51.398;7.088;2023-08-06T14:08:11;15.40;99.90
11736;DHT22;5924;51.398;7.088;2023-08-06T14:10:37;15.50;99.90
11736;DHT22;5924;51.398;7.088;2023-08-06T14:13:03;15.50;99.90
11736;DHT22;5924;51.398;7.088;2023-08-06T14:15:28;15.50;99.90
11736;DHT22;5924;51.398;7.088;2023-08-06T14:17:54;15.50;99.90
11736;DHT22;5924;51.398;7.088;2023-08-06T14:20:19;15.40;99.90
11736;DHT22;5924;51.398;7.088;2023-08-06T14:22:45;15.30;99.90
11736;DHT22;5924;51.398;7.088;2023-08-06T14:25:11;15.30;99.90
11736;DHT22;5924;51.398;7.088;2023-08-06T14:27:37;15.30;99.90
11736;DHT22;5924;51.398;7.088;2023-08-06T14:30:05;15.30;99.90
11736;DHT22;5924;51.398;7.088;2023-08-06T14:32:32;15.20;99.90
11736;DHT22;5924;51.398;7.088;2023-08-06T14:34:57;15.20;99.90
11736;DHT22;5924;51.398;7.088;2023-08-06T14:37:24;15.20;99.90
11736;DHT22;5924;51.398;7.088;2023-08-06T14:39:50;15.20;99.90
11736;DHT22;5924;51.398;7.088;2023-08-06T14:42:16;15.10;99.90
11736;DHT22;5924;51.398;7.088;2023-08-06T14:44:42;15.10;99.90
11736;DHT22;5924;51.398;7.088;2023-08-06T14:47:08;15.00;99.90
11736;DHT22;5924;51.398;7.088;2023-08-06T14:49:33;15.10;99.90
11736;DHT22;5924;51.398;7.088;2023-08-06T14:51:59;15.10;99.90
11736;DHT22;5924;51.398;7.088;2023-08-06T14:54:27;15.20;99.90
11736;DHT22;5924;51.398;7.088;2023-08-06T14:56:53;15.10;99.90
11736;DHT22;5924;51.398;7.088;2023-08-06T14:59:18;15.00;99.90
11736;DHT22;5924;51.398;7.088;2023-08-06T15:01:44;15.00;99.90
11736;DHT22;5924;51.398;7.088;2023-08-06T15:04:10;15.00;99.90
11736;DHT22;5924;51.398;7.088;2023-08-06T15:06:35;15.00;99.90
11736;DHT22;5924;51.398;7.088;2023-08-06T15:09:01;15.00;99.90
11736;DHT22;5924;51.398;7.088;2023-08-06T15:11:27;15.00;99.90
11736;DHT22;5924;51.398;7.088;2023-08-06T15:13:52;15.00;99.90
11736;DHT22;5924;51.398;7.088;2023-08-06T15:16:18;15.00;99.90
11736;DHT22;5924;51.398;7.088;2023-08-06T15:18:44;15.00;99.90
11736;DHT22;5924;51.398;7.088;2023-08-06T15:21:10;15.10;99.90
11736;DHT22;5924;51.398;7.088;2023-08-06T15:23:35;15.10;99.90
11736;DHT22;5924;51.398;7.088;2023-08-06T15:26:02;15.10;99.90
11736;DHT22;5924;51.398;7.088;2023-08-06T15:28:27;15.20;99.90
11736;DHT22;5924;51.398;7.088;2023-08-06T15:30:54;15.20;99.90
11736;DHT22;5924;51.398;7.088;2023-08-06T15:33:21;15.20;99.90
11736;DHT22;5924;51.398;7.088;2023-08-06T15:35:47;15.20;99.90
11736;DHT22;5924;51.398;7.088;2023-08-06T15:38:13;15.30;99.90
11736;DHT22;5924;51.398;7.088;2023-08-06T15:40:38;15.20;99.90
11736;DHT22;5924;51.398;7.088;2023-08-06T15:43:04;15.30;99.90
11736;DHT22;5924;51.398;7.088;2023-08-06T15:45:30;15.30;99.90
11736;DHT22;5924;51.398;7.088;2023-08-06T15:47:56;15.30;99.90
11736;DHT22;5924;51.398;7.088;2023-08-06T15:50:22;15.30;99.90